createdAt,value
2018-05-09T00:01:51.780Z,15.02
2018-05-09T00:04:20.239Z,15.07
2018-05-09T00:06:49.611Z,15.10
2018-05-09T00:09:17.975Z,15.14
2018-05-09T00:11:46.392Z,15.16
2018-05-09T00:14:14.806Z,15.24
2018-05-09T00:16:43.195Z,15.31
2018-05-09T00:19:11.637Z,15.36
2018-05-09T00:21:40.059Z,15.38
2018-05-09T00:24:08.850Z,15.45
2018-05-09T00:26:37.287Z,15.41
2018-05-09T00:29:05.667Z,15.42
2018-05-09T00:31:34.399Z,15.45
2018-05-09T00:34:02.800Z,15.42
2018-05-09T00:36:31.220Z,15.46
2018-05-09T00:38:59.625Z,15.52
2018-05-09T00:41:28.299Z,15.46
2018-05-09T00:43:56.744Z,15.49
2018-05-09T00:46:25.151Z,15.49
2018-05-09T00:48:53.748Z,15.45
2018-05-09T00:51:22.165Z,15.45
2018-05-09T00:53:50.607Z,15.31
2018-05-09T00:56:19.035Z,15.44
2018-05-09T00:58:49.371Z,15.45
2018-05-09T01:01:18.204Z,15.53
2018-05-09T01:03:46.643Z,15.47
2018-05-09T01:06:15.007Z,15.39
2018-05-09T01:08:43.454Z,15.57
2018-05-09T01:11:11.843Z,15.41
2018-05-09T01:13:40.275Z,15.30
2018-05-09T01:16:08.732Z,15.33
2018-05-09T01:18:46.411Z,15.03
2018-05-09T01:21:18.300Z,15.04
2018-05-09T01:23:46.824Z,14.93
2018-05-09T01:26:15.275Z,14.87
2018-05-09T01:28:43.672Z,14.70
2018-05-09T01:31:12.086Z,14.57
2018-05-09T01:33:40.554Z,14.53
2018-05-09T01:36:08.985Z,14.26
2018-05-09T01:38:37.398Z,14.18
2018-05-09T01:41:05.842Z,14.11
2018-05-09T01:43:34.591Z,14.13
2018-05-09T01:46:03.062Z,14.08
2018-05-09T01:48:31.476Z,14.01
2018-05-09T01:50:59.851Z,14.00
2018-05-09T01:53:28.279Z,14.07
2018-05-09T01:55:56.692Z,14.12
2018-05-09T01:58:25.440Z,14.20
2018-05-09T02:00:53.859Z,14.06
2018-05-09T02:03:22.313Z,14.16
2018-05-09T02:05:50.862Z,14.28
2018-05-09T02:08:19.235Z,14.43
2018-05-09T02:10:47.684Z,14.45
2018-05-09T02:13:16.133Z,14.45
2018-05-09T02:15:44.534Z,14.66
2018-05-09T02:18:12.986Z,14.80
2018-05-09T02:20:41.422Z,14.62
2018-05-09T02:23:09.831Z,14.63
2018-05-09T02:25:38.190Z,14.47
2018-05-09T02:28:06.671Z,14.37
2018-05-09T02:30:35.076Z,14.20
2018-05-09T02:33:03.643Z,14.08
2018-05-09T02:35:32.032Z,13.99
2018-05-09T02:38:00.524Z,13.95
2018-05-09T02:40:29.073Z,13.95
2018-05-09T02:42:57.451Z,13.91
2018-05-09T02:45:25.859Z,13.79
2018-05-09T02:47:54.377Z,13.91
2018-05-09T02:50:22.780Z,13.58
2018-05-09T02:52:51.202Z,13.50
2018-05-09T02:55:19.638Z,13.31
2018-05-09T02:57:48.036Z,13.14
2018-05-09T03:00:20.033Z,13.11
2018-05-09T03:02:48.443Z,13.06
2018-05-09T03:05:16.948Z,13.06
2018-05-09T03:07:45.376Z,13.13
2018-05-09T03:10:13.789Z,13.08
2018-05-09T03:12:42.207Z,12.99
2018-05-09T03:15:10.622Z,12.97
2018-05-09T03:17:40.560Z,12.92
2018-05-09T03:20:11.079Z,13.01
2018-05-09T03:22:39.495Z,13.00
2018-05-09T03:25:08.002Z,12.81
2018-05-09T03:27:36.395Z,12.79
2018-05-09T03:30:06.704Z,12.76
2018-05-09T03:32:36.634Z,12.57
2018-05-09T03:35:09.129Z,12.54
2018-05-09T03:37:37.543Z,12.49
2018-05-09T03:40:06.612Z,12.49
2018-05-09T03:42:35.961Z,12.42
2018-05-09T03:45:04.374Z,12.43
2018-05-09T03:47:32.794Z,12.39
2018-05-09T03:50:04.792Z,12.37
2018-05-09T03:52:35.204Z,12.32
2018-05-09T03:55:03.644Z,12.35
2018-05-09T03:57:32.049Z,12.33
2018-05-09T04:00:00.507Z,12.35
2018-05-09T04:02:36.766Z,12.22
2018-05-09T04:05:11.299Z,12.20
2018-05-09T04:07:45.824Z,12.29
2018-05-09T04:10:16.254Z,12.28
2018-05-09T04:12:44.651Z,12.25
2018-05-09T04:15:13.136Z,12.30
2018-05-09T04:17:41.480Z,12.26
2018-05-09T04:20:09.856Z,12.51
2018-05-09T04:22:38.296Z,12.63
2018-05-09T04:25:06.687Z,12.47
2018-05-09T04:27:35.096Z,12.59
2018-05-09T04:30:03.506Z,12.44
2018-05-09T04:32:32.839Z,12.64
2018-05-09T04:35:01.914Z,12.56
2018-05-09T04:37:30.404Z,12.67
2018-05-09T04:39:59.706Z,12.73
2018-05-09T04:42:28.187Z,12.97
2018-05-09T04:44:56.603Z,13.11
2018-05-09T04:47:25.047Z,13.22
2018-05-09T04:49:53.799Z,13.30
2018-05-09T04:52:23.068Z,13.46
2018-05-09T04:54:53.495Z,13.53
2018-05-09T04:57:24.030Z,13.79
2018-05-09T04:59:52.460Z,13.81
2018-05-09T05:02:21.223Z,14.08
2018-05-09T05:04:49.639Z,14.02
2018-05-09T05:07:18.039Z,14.06
2018-05-09T05:09:46.488Z,14.26
2018-05-09T05:12:14.903Z,14.46
2018-05-09T05:14:43.318Z,14.45
2018-05-09T05:17:11.688Z,14.53
2018-05-09T05:19:43.435Z,14.68
2018-05-09T05:22:11.839Z,14.69
2018-05-09T05:24:40.239Z,15.12
2018-05-09T05:27:08.706Z,15.29
2018-05-09T05:29:37.107Z,15.54
2018-05-09T05:32:05.535Z,15.94
2018-05-09T05:34:33.971Z,16.17
2018-05-09T05:37:03.524Z,16.36
2018-05-09T05:39:32.006Z,16.67
2018-05-09T05:42:01.791Z,17.02
2018-05-09T05:44:32.053Z,17.25
2018-05-09T05:47:00.450Z,17.45
2018-05-09T05:49:28.927Z,17.56
2018-05-09T05:51:58.891Z,17.69
2018-05-09T05:54:27.236Z,17.36
2018-05-09T05:56:55.668Z,17.64
2018-05-09T05:59:24.031Z,17.97
2018-05-09T06:01:53.035Z,17.92
2018-05-09T06:04:22.820Z,17.88
2018-05-09T06:06:51.237Z,18.34
2018-05-09T06:09:19.651Z,18.51
2018-05-09T06:11:48.183Z,18.78
2018-05-09T06:14:16.641Z,18.89
2018-05-09T06:16:45.072Z,18.93
2018-05-09T06:19:13.489Z,19.13
2018-05-09T06:21:41.871Z,19.23
2018-05-09T06:24:11.003Z,19.41
2018-05-09T06:26:39.337Z,19.73
2018-05-09T06:29:07.920Z,19.92
2018-05-09T06:31:36.321Z,20.37
2018-05-09T06:34:04.725Z,20.81
2018-05-09T06:36:33.139Z,20.90
2018-05-09T06:39:01.550Z,21.23
2018-05-09T06:41:30.084Z,21.42
2018-05-09T06:43:58.470Z,21.44
2018-05-09T06:46:26.869Z,21.40
2018-05-09T06:48:55.305Z,21.62
2018-05-09T06:51:23.715Z,21.44
2018-05-09T06:53:52.583Z,21.84
2018-05-09T06:56:20.938Z,22.53
2018-05-09T06:58:49.377Z,22.95
2018-05-09T07:01:19.252Z,23.66
2018-05-09T07:03:47.667Z,24.18
2018-05-09T07:06:17.109Z,24.09
2018-05-09T07:08:45.488Z,24.48
2018-05-09T07:11:13.900Z,24.19
2018-05-09T07:13:42.340Z,24.13
2018-05-09T07:16:10.773Z,24.49
2018-05-09T07:18:40.257Z,24.73
2018-05-09T07:21:08.664Z,24.56
2018-05-09T07:23:37.123Z,25.02
2018-05-09T07:26:05.575Z,25.62
2018-05-09T07:28:34.032Z,25.96
2018-05-09T07:31:02.439Z,26.26
2018-05-09T07:33:30.847Z,26.69
2018-05-09T07:35:59.307Z,26.82
2018-05-09T07:38:27.715Z,27.37
2018-05-09T07:40:56.134Z,27.53
2018-05-09T07:43:24.568Z,27.64
2018-05-09T07:45:52.883Z,27.93
2018-05-09T07:48:21.349Z,28.30
2018-05-09T07:50:49.723Z,28.28
2018-05-09T07:53:18.138Z,27.37
2018-05-09T07:55:46.571Z,26.29
2018-05-09T07:58:14.972Z,26.06
2018-05-09T08:00:43.972Z,27.23
2018-05-09T08:03:13.545Z,27.94
2018-05-09T08:05:42.187Z,28.65
2018-05-09T08:08:10.534Z,29.47
2018-05-09T08:10:38.853Z,29.71
2018-05-09T08:13:07.198Z,30.27
2018-05-09T08:15:36.501Z,30.28
2018-05-09T08:18:04.768Z,30.74
2018-05-09T08:20:33.267Z,30.09
2018-05-09T08:23:01.600Z,30.51
2018-05-09T08:25:29.771Z,30.48
2018-05-09T08:27:58.101Z,30.65
2018-05-09T08:30:26.255Z,31.15
2018-05-09T08:32:54.490Z,31.55
2018-05-09T08:35:22.663Z,31.67
2018-05-09T08:37:50.895Z,32.19
2018-05-09T08:40:19.815Z,31.27
2018-05-09T08:42:48.253Z,30.32
2018-05-09T08:45:16.783Z,30.62
2018-05-09T08:47:45.218Z,30.79
2018-05-09T08:50:14.666Z,30.98
2018-05-09T08:52:42.997Z,31.28
2018-05-09T08:55:11.170Z,31.51
2018-05-09T08:57:39.739Z,30.85
2018-05-09T09:00:08.152Z,30.84
2018-05-09T09:02:36.558Z,31.62
2018-05-09T09:05:04.682Z,32.02
2018-05-09T09:07:33.100Z,32.83
2018-05-09T09:10:01.485Z,32.49
2018-05-09T09:12:29.852Z,33.44
2018-05-09T09:14:58.284Z,33.75
2018-05-09T09:17:27.393Z,33.37
2018-05-09T09:19:55.873Z,33.04
2018-05-09T09:22:25.363Z,33.01
2018-05-09T09:24:53.733Z,32.43
2018-05-09T09:27:22.159Z,31.61
2018-05-09T09:29:50.653Z,30.87
2018-05-09T09:32:19.126Z,30.53
2018-05-09T09:34:48.572Z,30.75
2018-05-09T09:37:16.975Z,30.64
2018-05-09T09:39:45.363Z,30.25
2018-05-09T09:42:13.815Z,30.10
2018-05-09T09:44:42.210Z,29.44
2018-05-09T09:47:10.634Z,29.28
2018-05-09T09:49:40.679Z,27.40
2018-05-09T09:52:10.023Z,27.13
2018-05-09T09:54:38.459Z,26.14
2018-05-09T09:57:05.805Z,25.99
2018-05-09T09:59:32.393Z,26.02
2018-05-09T10:01:58.964Z,26.56
2018-05-09T10:04:25.681Z,27.06
2018-05-09T10:06:52.184Z,27.71
2018-05-09T10:09:18.796Z,28.23
2018-05-09T10:11:46.113Z,28.76
2018-05-09T10:14:13.473Z,28.55
2018-05-09T10:16:40.091Z,28.48
2018-05-09T10:19:07.534Z,28.76
2018-05-09T10:21:34.129Z,28.85
2018-05-09T10:24:01.428Z,28.64
2018-05-09T10:26:28.113Z,28.28
2018-05-09T10:28:55.061Z,28.28
2018-05-09T10:31:22.483Z,28.07
2018-05-09T10:33:49.075Z,28.24
2018-05-09T10:36:16.373Z,27.99
2018-05-09T10:38:44.022Z,27.86
2018-05-09T10:41:11.395Z,27.13
2018-05-09T10:43:38.041Z,26.93
2018-05-09T10:46:04.666Z,27.13
2018-05-09T10:48:31.260Z,27.13
2018-05-09T10:50:57.848Z,26.95
2018-05-09T10:53:24.453Z,26.80
2018-05-09T10:55:51.040Z,26.00
2018-05-09T10:58:18.393Z,26.02
2018-05-09T11:00:45.713Z,26.12
2018-05-09T11:03:12.333Z,26.34
2018-05-09T11:05:38.903Z,26.44
2018-05-09T11:08:05.856Z,25.92
2018-05-09T11:10:32.818Z,25.78
2018-05-09T11:13:00.106Z,25.71
2018-05-09T11:15:27.068Z,25.63
2018-05-09T11:17:53.984Z,25.00
2018-05-09T11:20:20.873Z,24.80
2018-05-09T11:22:47.817Z,24.65
2018-05-09T11:25:14.740Z,24.68
2018-05-09T11:27:41.725Z,24.95
2018-05-09T11:30:08.652Z,24.81
2018-05-09T11:32:35.569Z,25.24
2018-05-09T11:35:03.695Z,25.04
2018-05-09T11:37:30.630Z,25.10
2018-05-09T11:39:58.273Z,24.88
2018-05-09T11:42:25.283Z,25.40
2018-05-09T11:44:52.996Z,25.74
2018-05-09T11:47:20.679Z,25.49
2018-05-09T11:49:47.634Z,25.49
2018-05-09T11:52:14.580Z,25.60
2018-05-09T11:54:41.585Z,25.56
2018-05-09T11:57:08.619Z,25.37
2018-05-09T11:59:35.550Z,25.50
2018-05-09T12:02:02.589Z,25.54
2018-05-09T12:04:29.825Z,25.63
2018-05-09T12:06:57.107Z,25.63
2018-05-09T12:09:24.068Z,25.72
2018-05-09T12:11:50.667Z,25.22
2018-05-09T12:14:17.257Z,25.10
2018-05-09T12:16:44.633Z,24.97
2018-05-09T12:19:11.210Z,24.84
2018-05-09T12:21:38.164Z,24.47
2018-05-09T12:24:04.755Z,24.11
2018-05-09T12:26:32.135Z,23.68
2018-05-09T12:28:58.745Z,23.69
2018-05-09T12:31:26.057Z,23.96
2018-05-09T12:33:52.812Z,24.23
2018-05-09T12:36:20.190Z,24.27
2018-05-09T12:38:46.748Z,24.35
2018-05-09T12:41:13.406Z,24.47
2018-05-09T12:43:39.974Z,24.56
2018-05-09T12:46:06.772Z,24.93
2018-05-09T12:48:33.381Z,24.95
2018-05-09T12:51:00.664Z,24.86
2018-05-09T12:53:27.929Z,24.91
2018-05-09T12:55:54.541Z,24.53
2018-05-09T12:58:21.905Z,24.24
2018-05-09T13:00:48.537Z,23.89
2018-05-09T13:03:15.167Z,23.96
2018-05-09T13:05:41.768Z,24.30
2018-05-09T13:08:09.130Z,24.40
2018-05-09T13:10:35.730Z,24.16
2018-05-09T13:13:02.285Z,23.97
2018-05-09T13:15:29.628Z,24.01
2018-05-09T13:17:56.198Z,23.78
2018-05-09T13:20:22.825Z,23.39
2018-05-09T13:22:49.406Z,23.20
2018-05-09T13:25:15.977Z,23.22
2018-05-09T13:27:43.330Z,22.75
2018-05-09T13:30:09.916Z,22.08
2018-05-09T13:32:36.480Z,21.85
2018-05-09T13:35:03.158Z,21.85
2018-05-09T13:37:29.744Z,21.93
2018-05-09T13:39:56.429Z,21.79
2018-05-09T13:42:22.966Z,21.75
2018-05-09T13:44:50.282Z,21.99
2018-05-09T13:47:16.856Z,21.85
2018-05-09T13:49:44.178Z,21.62
2018-05-09T13:52:11.097Z,21.78
2018-05-09T13:54:37.673Z,22.29
2018-05-09T13:57:04.296Z,22.44
2018-05-09T13:59:31.730Z,22.44
2018-05-09T14:01:58.337Z,22.63
2018-05-09T14:04:24.915Z,22.87
2018-05-09T14:06:52.524Z,23.05
2018-05-09T14:09:19.117Z,23.21
2018-05-09T14:11:46.456Z,22.81
2018-05-09T14:14:13.053Z,22.86
2018-05-09T14:16:39.624Z,22.96
2018-05-09T14:19:06.277Z,22.67
2018-05-09T14:21:32.872Z,22.68
2018-05-09T14:23:59.428Z,22.82
2018-05-09T14:26:26.029Z,23.09
2018-05-09T14:28:53.333Z,23.31
2018-05-09T14:31:20.259Z,23.38
2018-05-09T14:33:46.857Z,23.53
2018-05-09T14:36:14.168Z,23.33
2018-05-09T14:38:40.821Z,23.30
2018-05-09T14:41:07.531Z,23.30
2018-05-09T14:43:34.164Z,23.29
2018-05-09T14:46:00.785Z,23.48
2018-05-09T14:48:27.395Z,23.43
2018-05-09T14:50:54.057Z,23.59
2018-05-09T14:53:20.685Z,23.74
2018-05-09T14:55:47.323Z,23.67
2018-05-09T14:58:13.940Z,23.20
2018-05-09T15:00:40.540Z,23.24
2018-05-09T15:03:07.159Z,23.24
2018-05-09T15:05:33.800Z,23.00
2018-05-09T15:08:00.840Z,22.92
2018-05-09T15:10:27.483Z,22.91
2018-05-09T15:12:54.169Z,22.67
2018-05-09T15:15:20.852Z,22.67
2018-05-09T15:17:47.442Z,22.76
2018-05-09T15:20:14.053Z,22.81
2018-05-09T15:22:40.685Z,22.74
2018-05-09T15:25:07.324Z,22.76
2018-05-09T15:27:33.975Z,22.54
2018-05-09T15:30:00.554Z,22.53
2018-05-09T15:32:27.220Z,22.40
2018-05-09T15:34:53.878Z,22.23
2018-05-09T15:37:20.552Z,22.16
2018-05-09T15:39:47.208Z,22.12
2018-05-09T15:42:14.576Z,22.13
2018-05-09T15:44:41.245Z,22.16
2018-05-09T15:47:07.845Z,22.18
2018-05-09T15:49:34.485Z,22.29
2018-05-09T15:52:01.106Z,22.43
2018-05-09T15:54:27.719Z,22.50
2018-05-09T15:56:54.357Z,22.47
2018-05-09T15:59:20.985Z,22.66
2018-05-09T16:01:47.653Z,22.74
2018-05-09T16:04:14.243Z,22.80
2018-05-09T16:06:41.629Z,23.00
2018-05-09T16:09:08.263Z,23.11
2018-05-09T16:11:35.608Z,23.06
2018-05-09T16:14:02.262Z,23.20
2018-05-09T16:16:28.849Z,23.22
2018-05-09T16:18:55.752Z,23.30
2018-05-09T16:21:22.366Z,23.34
2018-05-09T16:23:49.012Z,23.36
2018-05-09T16:26:15.622Z,23.38
2018-05-09T16:28:42.992Z,23.25
2018-05-09T16:31:10.441Z,23.39
2018-05-09T16:33:37.069Z,23.30
2018-05-09T16:36:03.676Z,23.34
2018-05-09T16:38:30.261Z,23.28
2018-05-09T16:40:56.872Z,22.89
2018-05-09T16:43:24.228Z,22.49
2018-05-09T16:45:50.826Z,22.31
2018-05-09T16:48:17.449Z,22.16
2018-05-09T16:50:44.064Z,22.16
2018-05-09T16:53:10.760Z,22.14
2018-05-09T16:55:37.296Z,21.87
2018-05-09T16:58:03.981Z,21.81
2018-05-09T17:00:30.600Z,21.46
2018-05-09T17:02:57.113Z,21.50
2018-05-09T17:05:23.766Z,21.42
2018-05-09T17:07:50.382Z,21.52
2018-05-09T17:10:17.077Z,21.40
2018-05-09T17:12:43.689Z,21.43
2018-05-09T17:15:10.343Z,21.59
2018-05-09T17:17:37.187Z,21.56
2018-05-09T17:20:03.834Z,21.62
2018-05-09T17:22:32.564Z,21.70
2018-05-09T17:24:59.228Z,21.74
2018-05-09T17:27:25.791Z,21.59
2018-05-09T17:29:53.183Z,21.46
2018-05-09T17:32:19.870Z,21.11
2018-05-09T17:34:47.213Z,20.48
2018-05-09T17:37:14.529Z,20.17
2018-05-09T17:39:41.151Z,19.89
2018-05-09T17:42:07.778Z,19.53
2018-05-09T17:44:34.356Z,19.18
2018-05-09T17:47:00.926Z,18.80
2018-05-09T17:49:27.580Z,18.87
2018-05-09T17:51:54.949Z,18.85
2018-05-09T17:54:21.554Z,18.82
2018-05-09T17:56:48.152Z,18.82
2018-05-09T17:59:14.757Z,18.81
2018-05-09T18:01:41.408Z,18.92
2018-05-09T18:04:08.762Z,19.01
2018-05-09T18:06:36.084Z,18.87
2018-05-09T18:09:02.815Z,18.94
2018-05-09T18:11:29.433Z,18.93
2018-05-09T18:13:56.769Z,18.87
2018-05-09T18:16:23.416Z,18.71
2018-05-09T18:18:50.810Z,18.64
2018-05-09T18:21:17.500Z,18.52
2018-05-09T18:23:44.018Z,18.46
2018-05-09T18:26:11.429Z,18.26
2018-05-09T18:28:38.037Z,18.09
2018-05-09T18:31:05.021Z,18.08
2018-05-09T18:33:31.670Z,18.03
2018-05-09T18:35:58.282Z,17.88
2018-05-09T18:38:24.854Z,17.73
2018-05-09T18:40:51.521Z,17.67
2018-05-09T18:43:18.521Z,17.61
2018-05-09T18:45:45.132Z,17.61
2018-05-09T18:48:11.715Z,17.54
2018-05-09T18:50:38.323Z,17.44
2018-05-09T18:53:04.889Z,17.39
2018-05-09T18:55:31.492Z,17.26
2018-05-09T18:57:58.891Z,17.18
2018-05-09T19:00:25.898Z,16.95
2018-05-09T19:02:54.025Z,16.90
2018-05-09T19:05:21.309Z,16.88
2018-05-09T19:07:47.978Z,16.83
2018-05-09T19:10:14.584Z,16.76
2018-05-09T19:12:41.519Z,16.71
2018-05-09T19:15:08.215Z,16.67
2018-05-09T19:17:34.817Z,16.53
2018-05-09T19:20:01.429Z,16.49
2018-05-09T19:22:27.977Z,16.60
2018-05-09T19:24:54.584Z,16.58
2018-05-09T19:27:21.981Z,16.53
2018-05-09T19:29:48.596Z,16.56
2018-05-09T19:32:15.236Z,16.50
2018-05-09T19:34:41.790Z,16.45
2018-05-09T19:37:08.405Z,16.47
2018-05-09T19:39:35.044Z,16.43
2018-05-09T19:42:01.629Z,16.48
2018-05-09T19:44:28.197Z,16.47
2018-05-09T19:46:54.791Z,16.51
2018-05-09T19:49:21.778Z,16.40
2018-05-09T19:51:48.358Z,16.34
2018-05-09T19:54:15.686Z,16.50
2018-05-09T19:56:42.535Z,16.76
2018-05-09T19:59:09.901Z,16.51
2018-05-09T20:01:36.456Z,16.33
2018-05-09T20:04:03.829Z,16.18
2018-05-09T20:06:30.397Z,16.03
2018-05-09T20:08:57.726Z,15.70
2018-05-09T20:11:25.120Z,15.64
2018-05-09T20:13:51.819Z,15.59
2018-05-09T20:16:18.426Z,15.54
2018-05-09T20:18:45.718Z,15.47
2018-05-09T20:21:13.040Z,15.39
2018-05-09T20:23:40.076Z,15.35
2018-05-09T20:26:07.425Z,15.29
2018-05-09T20:28:34.380Z,15.26
2018-05-09T20:44:43.572Z,15.05
2018-05-09T20:47:10.859Z,15.06
2018-05-09T20:49:37.859Z,15.03
2018-05-09T20:52:05.990Z,15.09
2018-05-09T20:54:32.797Z,15.19
2018-05-09T20:57:00.121Z,15.17
2018-05-09T20:59:29.565Z,15.07
2018-05-09T21:01:56.854Z,15.07
2018-05-09T21:04:23.544Z,15.13
2018-05-09T21:06:51.636Z,14.87
2018-05-09T21:09:19.929Z,14.81
2018-05-09T21:12:05.034Z,14.82
2018-05-09T21:14:31.615Z,14.67
2018-05-09T21:16:58.728Z,14.68
2018-05-09T21:19:26.413Z,14.69
2018-05-09T21:21:53.703Z,14.53
2018-05-09T21:24:20.364Z,14.50
2018-05-09T21:26:47.704Z,14.34
2018-05-09T21:29:15.124Z,14.32
2018-05-09T21:31:42.479Z,14.31
2018-05-09T21:34:09.938Z,14.19
2018-05-09T21:36:36.837Z,14.06
2018-05-09T21:39:03.855Z,14.02
2018-05-09T21:41:30.863Z,14.09
2018-05-09T21:43:58.505Z,14.16
2018-05-09T21:46:26.872Z,14.08
2018-05-09T21:48:53.783Z,13.95
2018-05-09T21:51:21.088Z,13.84
2018-05-09T21:53:48.695Z,13.83
2018-05-09T21:56:16.025Z,13.86
2018-05-09T21:58:43.315Z,13.89
2018-05-09T22:01:10.709Z,13.75
2018-05-09T22:03:38.917Z,13.69
2018-05-09T22:06:06.297Z,13.68
2018-05-09T22:08:33.673Z,13.65
2018-05-09T22:11:00.806Z,13.64
2018-05-09T22:13:29.452Z,13.57
2018-05-09T22:15:56.826Z,13.61
2018-05-09T22:18:24.359Z,13.49
2018-05-09T22:20:51.748Z,13.48
2018-05-09T22:23:19.090Z,13.52
2018-05-09T22:25:47.249Z,13.52
2018-05-09T22:28:14.560Z,13.48
2018-05-09T22:30:42.900Z,13.46
2018-05-09T22:33:10.179Z,13.41
2018-05-09T22:35:37.197Z,13.45
2018-05-09T22:38:04.176Z,13.51
2018-05-09T22:40:31.124Z,13.56
2018-05-09T22:42:58.024Z,13.39
2018-05-09T22:45:24.986Z,13.29
2018-05-09T22:47:53.743Z,13.29
2018-05-09T22:50:21.480Z,13.26
2018-05-09T22:52:48.452Z,13.28
2018-05-09T22:55:15.542Z,13.27
2018-05-09T22:57:43.220Z,13.37
2018-05-09T23:00:11.771Z,13.39
2018-05-09T23:02:38.599Z,13.54
2018-05-09T23:05:06.375Z,13.44
2018-05-09T23:07:33.475Z,13.26
2018-05-09T23:10:00.452Z,13.07
2018-05-09T23:12:27.998Z,13.03
2018-05-09T23:14:54.988Z,12.81
2018-05-09T23:17:21.570Z,12.65
2018-05-09T23:19:51.905Z,12.77
2018-05-09T23:22:18.509Z,12.78
2018-05-09T23:24:45.896Z,12.71
2018-05-09T23:27:12.893Z,12.61
2018-05-09T23:29:42.356Z,12.56
2018-05-09T23:32:09.320Z,12.48
2018-05-09T23:34:36.267Z,12.43
2018-05-09T23:37:04.035Z,12.38
2018-05-09T23:39:31.782Z,12.45
2018-05-09T23:42:00.152Z,12.44
2018-05-09T23:44:27.133Z,12.54
2018-05-09T23:46:55.067Z,12.51
2018-05-09T23:49:22.630Z,12.51
2018-05-09T23:51:50.460Z,12.63
2018-05-09T23:54:18.370Z,12.72
2018-05-09T23:56:46.061Z,12.64
2018-05-09T23:59:14.766Z,12.44
